createdAt,value
2023-05-20T00:00:11.160Z,102668.13
2023-05-20T00:01:13.534Z,102663.56
2023-05-20T00:02:16.257Z,102669.94
2023-05-20T00:03:20.278Z,102662.00
2023-05-20T00:04:22.324Z,102662.00
2023-05-20T00:05:24.238Z,102661.28
2023-05-20T00:06:26.132Z,102661.41
2023-05-20T00:07:28.061Z,102657.88
2023-05-20T00:08:30.056Z,102659.84
2023-05-20T00:09:31.898Z,102662.53
2023-05-20T00:10:33.694Z,102660.81
2023-05-20T00:11:35.562Z,102659.13
2023-05-20T00:12:39.058Z,102662.78
2023-05-20T00:13:41.066Z,102666.34
2023-05-20T00:14:42.948Z,102670.88
2023-05-20T00:15:44.790Z,102667.72
2023-05-20T00:16:47.056Z,102672.88
2023-05-20T00:17:48.981Z,102673.84
2023-05-20T00:18:51.157Z,102672.97
2023-05-20T00:19:53.065Z,102668.56
2023-05-20T00:20:55.257Z,102673.13
2023-05-20T00:21:58.074Z,102665.41
2023-05-20T00:23:00.175Z,102673.97
2023-05-20T00:24:02.038Z,102667.84
2023-05-20T00:25:04.098Z,102677.75
2023-05-20T00:26:06.089Z,102680.47
2023-05-20T00:27:07.956Z,102667.50
2023-05-20T00:28:09.787Z,102675.59
2023-05-20T00:29:11.587Z,102673.63
2023-05-20T00:30:14.033Z,102679.00
2023-05-20T00:31:15.915Z,102682.69
2023-05-20T00:32:17.842Z,102678.28
2023-05-20T00:33:19.783Z,102680.97
2023-05-20T00:34:21.876Z,102680.97
2023-05-20T00:35:23.745Z,102682.97
2023-05-20T00:36:25.719Z,102680.25
2023-05-20T00:37:28.126Z,102683.09
2023-05-20T00:38:30.214Z,102680.41
2023-05-20T00:39:32.075Z,102685.78
2023-05-20T00:40:33.905Z,102677.97
2023-05-20T00:41:36.168Z,102680.53
2023-05-20T00:42:38.020Z,102671.97
2023-05-20T00:43:39.863Z,102677.09
2023-05-20T00:44:41.943Z,102679.78
2023-05-20T00:45:43.927Z,102669.28
2023-05-20T00:46:48.208Z,102680.78
2023-05-20T00:47:50.100Z,102679.78
2023-05-20T00:48:52.714Z,102667.56
2023-05-20T00:49:54.700Z,102652.25
2023-05-20T00:50:56.660Z,102681.75
2023-05-20T00:51:59.047Z,102680.94
2023-05-20T00:53:00.987Z,102683.75
2023-05-20T00:54:03.344Z,102678.34
2023-05-20T00:55:05.589Z,102681.03
2023-05-20T00:56:08.898Z,102681.28
2023-05-20T00:57:11.975Z,102681.16
2023-05-20T00:58:14.234Z,102676.88
2023-05-20T00:59:16.632Z,102681.28
2023-05-20T01:00:18.520Z,102676.88
2023-05-20T01:01:20.462Z,102677.72
2023-05-20T01:02:23.103Z,102671.13
2023-05-20T01:03:25.800Z,102683.25
2023-05-20T01:04:28.233Z,102658.84
2023-05-20T01:05:30.138Z,102687.91
2023-05-20T01:06:33.747Z,102683.50
2023-05-20T01:07:35.971Z,102678.94
2023-05-20T01:08:37.825Z,102675.41
2023-05-20T01:09:39.736Z,102675.94
2023-05-20T01:10:46.829Z,102676.41
2023-05-20T01:11:53.047Z,102680.09
2023-05-20T01:12:58.333Z,102668.69
2023-05-20T01:14:07.601Z,102680.91
2023-05-20T01:15:12.052Z,102679.94
2023-05-20T01:16:18.616Z,102677.38
2023-05-20T01:17:21.183Z,102678.22
2023-05-20T01:18:25.679Z,102674.94
2023-05-20T01:19:35.623Z,102678.47
2023-05-20T01:20:39.455Z,102676.50
2023-05-20T01:21:43.461Z,102673.97
2023-05-20T01:22:49.937Z,102674.94
2023-05-20T01:23:51.828Z,102672.25
2023-05-20T01:24:53.706Z,102674.22
2023-05-20T01:25:56.102Z,102681.44
2023-05-20T01:26:58.282Z,102678.88
2023-05-20T01:28:00.246Z,102685.25
2023-05-20T01:29:04.878Z,102678.16
2023-05-20T01:30:07.762Z,102684.28
2023-05-20T01:31:19.486Z,102682.56
2023-05-20T01:32:26.355Z,102681.59
2023-05-20T01:33:30.215Z,102686.97
2023-05-20T01:34:33.904Z,102690.66
2023-05-20T01:35:36.830Z,102694.34
2023-05-20T01:36:40.771Z,102697.03
2023-05-20T01:37:43.991Z,102681.13
2023-05-20T01:38:46.413Z,102690.03
2023-05-20T01:39:51.251Z,102693.72
2023-05-20T01:40:55.220Z,102694.59
2023-05-20T01:41:57.820Z,102694.59
2023-05-20T01:43:01.510Z,102692.88
2023-05-20T01:44:03.894Z,102694.69
2023-05-20T01:45:06.443Z,102691.16
2023-05-20T01:46:08.341Z,102691.16
2023-05-20T01:47:10.203Z,102694.84
2023-05-20T01:48:12.761Z,102690.41
2023-05-20T01:49:16.124Z,102697.53
2023-05-20T01:50:19.888Z,102695.78
2023-05-20T01:51:22.455Z,102695.78
2023-05-20T01:52:24.415Z,102704.88
2023-05-20T01:53:26.328Z,102705.84
2023-05-20T01:54:28.158Z,102704.88
2023-05-20T01:55:30.113Z,102705.84
2023-05-20T01:56:32.031Z,102706.84
2023-05-20T01:57:34.647Z,102706.84
2023-05-20T01:58:36.703Z,102706.84
2023-05-20T01:59:39.709Z,102708.69
2023-05-20T02:00:41.989Z,102705.13
2023-05-20T02:01:44.019Z,102708.78
2023-05-20T02:02:46.057Z,102711.50
2023-05-20T02:03:48.476Z,102710.66
2023-05-20T02:04:51.666Z,102716.16
2023-05-20T02:05:53.575Z,102668.47
2023-05-20T02:06:57.901Z,102710.66
2023-05-20T02:07:59.758Z,102712.47
2023-05-20T02:09:02.497Z,102708.06
2023-05-20T02:10:04.967Z,102704.66
2023-05-20T02:11:06.834Z,102696.22
2023-05-20T02:12:10.158Z,102710.91
2023-05-20T02:13:12.812Z,102703.66
2023-05-20T02:14:15.548Z,102706.34
2023-05-20T02:15:17.529Z,102711.75
2023-05-20T02:16:19.601Z,102702.94
2023-05-20T02:17:21.621Z,102701.22
2023-05-20T02:18:23.495Z,102708.31
2023-05-20T02:19:25.491Z,102706.63
2023-05-20T02:20:27.406Z,102700.38
2023-05-20T02:21:29.229Z,102703.09
2023-05-20T02:22:31.252Z,102693.19
2023-05-20T02:23:33.134Z,102705.88
2023-05-20T02:24:34.973Z,102708.56
2023-05-20T02:25:36.869Z,102705.88
2023-05-20T02:26:38.714Z,102707.75
2023-05-20T02:27:40.862Z,102717.66
2023-05-20T02:28:46.720Z,102709.56
2023-05-20T02:29:49.005Z,102715.81
2023-05-20T02:30:53.913Z,102714.09
2023-05-20T02:31:55.722Z,102710.53
2023-05-20T02:32:58.088Z,102718.63
2023-05-20T02:34:00.254Z,102713.25
2023-05-20T02:35:03.480Z,102714.22
2023-05-20T02:36:05.905Z,102716.19
2023-05-20T02:37:07.820Z,102714.38
2023-05-20T02:38:11.311Z,102710.81
2023-05-20T02:39:13.280Z,102710.81
2023-05-20T02:40:15.208Z,102717.06
2023-05-20T02:41:17.198Z,102714.47
2023-05-20T02:42:19.541Z,102709.97
2023-05-20T02:43:21.392Z,102713.63
2023-05-20T02:44:23.459Z,102710.94
2023-05-20T02:45:25.536Z,102712.75
2023-05-20T02:46:27.444Z,102702.34
2023-05-20T02:47:29.478Z,102708.34
2023-05-20T02:48:31.390Z,102710.06
2023-05-20T02:49:33.846Z,102709.34
2023-05-20T02:50:41.117Z,102709.34
2023-05-20T02:51:42.994Z,102712.75
2023-05-20T02:52:45.696Z,102713.75
2023-05-20T02:53:48.126Z,102718.25
2023-05-20T02:54:50.409Z,102712.03
2023-05-20T02:55:52.380Z,102714.72
2023-05-20T02:56:54.211Z,102714.72
2023-05-20T02:57:56.324Z,102705.78
2023-05-20T02:58:59.165Z,102715.72
2023-05-20T03:00:01.157Z,102714.72
2023-05-20T03:01:03.602Z,102720.22
2023-05-20T03:02:05.792Z,102719.25
2023-05-20T03:03:08.256Z,102715.72
2023-05-20T03:04:10.195Z,102718.41
2023-05-20T03:05:12.582Z,102712.41
2023-05-20T03:06:14.591Z,102726.50
2023-05-20T03:07:19.783Z,102727.47
2023-05-20T03:08:23.154Z,102728.31
2023-05-20T03:09:25.494Z,102722.19
2023-05-20T03:10:27.341Z,102729.19
2023-05-20T03:11:29.273Z,102733.69
2023-05-20T03:12:31.389Z,102731.97
2023-05-20T03:13:33.249Z,102743.63
2023-05-20T03:14:35.363Z,102743.63
2023-05-20T03:15:38.375Z,102747.31
2023-05-20T03:16:40.553Z,102748.16
2023-05-20T03:17:42.486Z,102747.31
2023-05-20T03:18:44.469Z,102750.72
2023-05-20T03:19:46.469Z,102736.06
2023-05-20T03:20:49.280Z,102753.41
2023-05-20T03:21:51.463Z,102747.31
2023-05-20T03:22:53.353Z,102751.56
2023-05-20T03:23:55.296Z,102720.03
2023-05-20T03:24:57.230Z,102746.19
2023-05-20T03:25:59.107Z,102748.03
2023-05-20T03:27:01.097Z,102753.41
2023-05-20T03:28:03.030Z,102752.44
2023-05-20T03:29:05.714Z,102748.88
2023-05-20T03:30:08.421Z,102749.75
2023-05-20T03:31:10.373Z,102747.06
2023-05-20T03:32:12.253Z,102756.13
2023-05-20T03:33:15.980Z,102755.97
2023-05-20T03:34:17.825Z,102762.22
2023-05-20T03:35:21.064Z,102759.53
2023-05-20T03:36:23.547Z,102747.06
2023-05-20T03:37:25.427Z,102760.28
2023-05-20T03:38:27.728Z,102752.44
2023-05-20T03:39:29.713Z,102755.88
2023-05-20T03:40:31.668Z,102762.97
2023-05-20T03:41:33.813Z,102760.28
2023-05-20T03:42:36.432Z,102762.97
2023-05-20T03:43:38.636Z,102759.28
2023-05-20T03:44:41.203Z,102752.44
2023-05-20T03:45:43.105Z,102757.47
2023-05-20T03:46:45.079Z,102753.91
2023-05-20T03:47:48.445Z,102741.66
2023-05-20T03:48:52.269Z,102758.06
2023-05-20T03:49:55.372Z,102747.41
2023-05-20T03:50:57.310Z,102750.84
2023-05-20T03:51:59.281Z,102753.41
2023-05-20T03:53:01.475Z,102752.56
2023-05-20T03:54:09.016Z,102716.06
2023-05-20T03:55:10.906Z,102755.97
2023-05-20T03:56:12.893Z,102757.69
2023-05-20T03:57:16.155Z,102748.75
2023-05-20T03:58:18.076Z,102753.16
2023-05-20T03:59:20.181Z,102748.63
2023-05-20T04:00:22.934Z,102762.94
2023-05-20T04:01:25.979Z,102762.22
2023-05-20T04:02:28.583Z,102765.63
2023-05-20T04:03:31.562Z,102764.66
2023-05-20T04:04:33.505Z,102768.22
2023-05-20T04:05:36.985Z,102764.91
2023-05-20T04:06:42.362Z,102769.78
2023-05-20T04:07:44.350Z,102765.38
2023-05-20T04:08:48.321Z,102768.81
2023-05-20T04:09:50.306Z,102764.41
2023-05-20T04:10:56.536Z,102772.47
2023-05-20T04:11:58.497Z,102772.22
2023-05-20T04:13:00.856Z,102766.84
2023-05-20T04:14:03.025Z,102766.84
2023-05-20T04:15:05.951Z,102769.44
2023-05-20T04:16:15.351Z,102774.56
2023-05-20T04:17:17.295Z,102778.97
2023-05-20T04:18:19.506Z,102783.53
2023-05-20T04:19:21.620Z,102781.66
2023-05-20T04:20:24.624Z,102785.09
2023-05-20T04:21:29.953Z,102789.50
2023-05-20T04:22:31.832Z,102780.56
2023-05-20T04:23:33.894Z,102793.06
2023-05-20T04:24:35.850Z,102786.69
2023-05-20T04:25:37.834Z,102784.00
2023-05-20T04:26:39.982Z,102781.31
2023-05-20T04:27:41.888Z,102779.34
2023-05-20T04:28:43.828Z,102786.44
2023-05-20T04:29:47.450Z,102790.13
2023-05-20T04:30:50.245Z,102789.13
2023-05-20T04:31:52.322Z,102784.47
2023-05-20T04:32:54.750Z,102778.09
2023-05-20T04:33:57.766Z,102781.63
2023-05-20T04:35:02.137Z,102774.06
2023-05-20T04:36:07.943Z,102778.94
2023-05-20T04:37:10.352Z,102787.63
2023-05-20T04:38:13.381Z,102786.66
2023-05-20T04:39:15.711Z,102781.25
2023-05-20T04:40:17.644Z,102783.09
2023-05-20T04:41:19.630Z,102786.66
2023-05-20T04:42:22.314Z,102781.25
2023-05-20T04:43:26.035Z,102788.38
2023-05-20T04:44:28.356Z,102790.09
2023-05-20T04:45:30.238Z,102790.09
2023-05-20T04:46:32.358Z,102784.69
2023-05-20T04:47:38.734Z,102791.78
2023-05-20T04:48:40.999Z,102781.25
2023-05-20T04:49:42.897Z,102784.44
2023-05-20T04:50:45.076Z,102792.44
2023-05-20T04:51:47.640Z,102787.06
2023-05-20T04:52:49.543Z,102782.50
2023-05-20T04:53:51.529Z,102786.91
2023-05-20T04:54:53.501Z,102792.31
2023-05-20T04:55:57.058Z,102787.88
2023-05-20T04:56:59.837Z,102785.91
2023-05-20T04:58:02.138Z,102784.94
2023-05-20T04:59:04.217Z,102785.81
2023-05-20T05:00:07.936Z,102778.56
2023-05-20T05:01:09.784Z,102785.66
2023-05-20T05:02:11.670Z,102782.13
2023-05-20T05:03:13.713Z,102783.94
2023-05-20T05:04:15.751Z,102790.06
2023-05-20T05:05:17.704Z,102780.28
2023-05-20T05:06:19.609Z,102774.78
2023-05-20T05:07:22.078Z,102779.44
2023-05-20T05:08:24.202Z,102782.97
2023-05-20T05:09:27.682Z,102777.47
2023-05-20T05:10:30.654Z,102778.56
2023-05-20T05:11:32.788Z,102772.06
2023-05-20T05:12:34.877Z,102776.59
2023-05-20T05:13:38.656Z,102773.91
2023-05-20T05:14:41.076Z,102774.78
2023-05-20T05:15:43.548Z,102774.78
2023-05-20T05:16:46.775Z,102784.56
2023-05-20T05:17:50.402Z,102784.56
2023-05-20T05:18:52.921Z,102781.00
2023-05-20T05:19:54.791Z,102782.84
2023-05-20T05:21:04.054Z,102779.28
2023-05-20T05:22:06.542Z,102771.09
2023-05-20T05:23:08.986Z,102778.31
2023-05-20T05:24:11.037Z,102772.91
2023-05-20T05:25:13.622Z,102782.00
2023-05-20T05:26:15.950Z,102778.31
2023-05-20T05:27:19.341Z,102773.31
2023-05-20T05:28:21.187Z,102781.16
2023-05-20T05:29:23.184Z,102780.28
2023-05-20T05:30:25.334Z,102776.59
2023-05-20T05:31:27.184Z,102776.59
2023-05-20T05:32:29.434Z,102777.56
2023-05-20T05:33:31.543Z,102771.19
2023-05-20T05:34:33.465Z,102769.50
2023-05-20T05:35:35.445Z,102774.88
2023-05-20T05:36:40.299Z,102774.88
2023-05-20T05:37:42.481Z,102781.00
2023-05-20T05:38:44.638Z,102782.84
2023-05-20T05:39:46.556Z,102773.91
2023-05-20T05:40:48.560Z,102783.69
2023-05-20T05:41:51.904Z,102777.47
2023-05-20T05:42:54.238Z,102764.63
2023-05-20T05:43:56.798Z,102772.91
2023-05-20T05:44:58.634Z,102758.13
2023-05-20T05:46:01.251Z,102776.59
2023-05-20T05:47:03.592Z,102773.06
2023-05-20T05:48:05.725Z,102761.81
2023-05-20T05:49:07.782Z,102776.59
2023-05-20T05:50:10.398Z,102776.59
2023-05-20T05:51:13.146Z,102778.31
2023-05-20T05:52:15.081Z,102767.31
2023-05-20T05:53:17.870Z,102783.69
2023-05-20T05:54:23.001Z,102779.19
2023-05-20T05:55:25.936Z,102781.00
2023-05-20T05:56:29.180Z,102769.75
2023-05-20T05:57:32.388Z,102780.88
2023-05-20T05:58:34.473Z,102778.31
2023-05-20T05:59:37.752Z,102776.59
2023-05-20T06:00:39.898Z,102776.59
2023-05-20T06:01:41.884Z,102779.19
2023-05-20T06:02:45.400Z,102772.06
2023-05-20T06:03:51.859Z,102779.19
2023-05-20T06:04:54.712Z,102781.72
2023-05-20T06:05:56.614Z,102774.63
2023-05-20T06:06:59.092Z,102779.19
2023-05-20T06:08:01.143Z,102775.50
2023-05-20T06:09:03.468Z,102781.72
2023-05-20T06:10:06.215Z,102776.22
2023-05-20T06:11:09.035Z,102781.63
2023-05-20T06:12:13.276Z,102777.78
2023-05-20T06:13:16.163Z,102775.81
2023-05-20T06:14:18.250Z,102781.00
2023-05-20T06:15:20.366Z,102784.53
2023-05-20T06:16:22.475Z,102778.16
2023-05-20T06:17:24.470Z,102785.00
2023-05-20T06:18:26.470Z,102787.44
2023-05-20T06:19:31.760Z,102788.88
2023-05-20T06:20:33.876Z,102786.19
2023-05-20T06:21:36.687Z,102787.53
2023-05-20T06:22:38.672Z,102785.44
2023-05-20T06:23:41.026Z,102777.47
2023-05-20T06:24:45.948Z,102791.16
2023-05-20T06:25:48.853Z,102788.19
2023-05-20T06:26:51.193Z,102789.63
2023-05-20T06:27:53.228Z,102785.84
2023-05-20T06:28:56.531Z,102788.16
2023-05-20T06:29:58.409Z,102792.41
2023-05-20T06:31:00.632Z,102790.31
2023-05-20T06:32:06.469Z,102788.19
2023-05-20T06:33:09.037Z,102783.06
2023-05-20T06:34:11.149Z,102791.28
2023-05-20T06:35:13.411Z,102791.84
2023-05-20T06:36:15.277Z,102787.22
2023-05-20T06:37:17.193Z,102787.78
2023-05-20T06:38:20.281Z,102783.09
2023-05-20T06:39:22.344Z,102790.81
2023-05-20T06:40:24.303Z,102774.47
2023-05-20T06:41:26.595Z,102780.47
2023-05-20T06:42:28.888Z,102786.44
2023-05-20T06:43:38.649Z,102777.09
2023-05-20T06:44:45.716Z,102771.72
2023-05-20T06:46:07.420Z,102783.25
2023-05-20T06:47:18.655Z,102785.97
2023-05-20T06:48:22.448Z,102790.09
2023-05-20T06:49:24.883Z,102789.25
2023-05-20T06:50:28.419Z,102786.41
2023-05-20T06:51:30.375Z,102791.69
2023-05-20T06:52:32.408Z,102774.16
2023-05-20T06:53:34.269Z,102788.00
2023-05-20T06:54:40.183Z,102782.47
2023-05-20T06:55:43.180Z,102780.34
2023-05-20T06:56:45.861Z,102784.75
2023-05-20T06:57:49.375Z,102784.75
2023-05-20T06:58:52.841Z,102789.88
2023-05-20T06:59:54.690Z,102776.38
2023-05-20T07:00:56.882Z,102781.66
2023-05-20T07:02:00.967Z,102783.38
2023-05-20T07:03:03.088Z,102784.91
2023-05-20T07:04:05.192Z,102774.38
2023-05-20T07:05:08.366Z,102784.91
2023-05-20T07:06:11.181Z,102781.22
2023-05-20T07:07:13.731Z,102781.94
2023-05-20T07:08:16.483Z,102775.72
2023-05-20T07:09:18.459Z,102782.81
2023-05-20T07:10:21.460Z,102782.66
2023-05-20T07:11:24.012Z,102780.38
2023-05-20T07:12:25.912Z,102775.81
2023-05-20T07:13:27.822Z,102778.97
2023-05-20T07:14:29.902Z,102778.97
2023-05-20T07:15:31.938Z,102776.28
2023-05-20T07:16:35.323Z,102788.69
2023-05-20T07:17:37.507Z,102787.84
2023-05-20T07:18:40.628Z,102787.72
2023-05-20T07:19:42.817Z,102782.19
2023-05-20T07:20:45.523Z,102785.88
2023-05-20T07:21:58.305Z,102789.03
2023-05-20T07:23:10.169Z,102787.88
2023-05-20T07:24:20.108Z,102783.34
2023-05-20T07:25:21.981Z,102791.56
2023-05-20T07:26:24.182Z,102795.25
2023-05-20T07:27:26.103Z,102795.25
2023-05-20T07:28:28.079Z,102790.84
2023-05-20T07:29:30.224Z,102768.16
2023-05-20T07:30:32.247Z,102779.91
2023-05-20T07:31:54.062Z,102778.50
2023-05-20T07:32:56.003Z,102781.34
2023-05-20T07:33:58.154Z,102794.16
2023-05-20T07:34:59.987Z,102780.63
2023-05-20T07:36:02.010Z,102798.69
2023-05-20T07:37:04.290Z,102793.28
2023-05-20T07:38:06.818Z,102787.88
2023-05-20T07:39:13.463Z,102789.59
2023-05-20T07:40:17.467Z,102782.19
2023-05-20T07:41:19.427Z,102791.28
2023-05-20T07:42:21.302Z,102780.34
2023-05-20T07:43:26.137Z,102792.16
2023-05-20T07:44:28.153Z,102776.50
2023-05-20T07:45:30.443Z,102786.75
2023-05-20T07:46:32.754Z,102781.34
2023-05-20T07:47:34.840Z,102780.34
2023-05-20T07:48:37.114Z,102781.34
2023-05-20T07:49:39.509Z,102786.75
2023-05-20T07:50:42.470Z,102745.38
2023-05-20T07:51:44.456Z,102780.34
2023-05-20T07:52:56.139Z,102781.34
2023-05-20T07:54:01.620Z,102784.50
2023-05-20T07:55:03.986Z,102779.09
2023-05-20T07:56:06.053Z,102782.19
2023-05-20T07:57:07.883Z,102786.47
2023-05-20T07:58:09.872Z,102784.78
2023-05-20T07:59:11.984Z,102785.59
2023-05-20T08:00:20.868Z,102789.03
2023-05-20T08:01:22.668Z,102785.50
2023-05-20T08:02:24.988Z,102790.03
2023-05-20T08:03:27.580Z,102790.88
2023-05-20T08:04:41.284Z,102788.75
2023-05-20T08:05:43.230Z,102788.91
2023-05-20T08:06:45.999Z,102783.50
2023-05-20T08:07:54.960Z,102782.50
2023-05-20T08:08:59.331Z,102783.34
2023-05-20T08:10:06.871Z,102779.81
2023-05-20T08:11:09.882Z,102784.22
2023-05-20T08:12:13.157Z,102775.66
2023-05-20T08:13:15.921Z,102779.81
2023-05-20T08:14:17.908Z,102787.03
2023-05-20T08:15:23.111Z,102783.34
2023-05-20T08:16:25.122Z,102783.50
2023-05-20T08:17:27.023Z,102792.31
2023-05-20T08:18:29.117Z,102788.91
2023-05-20T08:19:31.213Z,102790.63
2023-05-20T08:20:33.152Z,102785.22
2023-05-20T08:21:35.492Z,102778.38
2023-05-20T08:22:37.860Z,102791.47
2023-05-20T08:23:40.676Z,102785.94
2023-05-20T08:24:42.991Z,102784.94
2023-05-20T08:25:48.995Z,102785.66
2023-05-20T08:26:52.058Z,102779.41
2023-05-20T08:27:55.215Z,102784.81
2023-05-20T08:28:57.177Z,102780.25
2023-05-20T08:30:00.649Z,102780.25
2023-05-20T08:31:03.001Z,102781.94
2023-05-20T08:32:06.617Z,102784.66
2023-05-20T08:33:10.090Z,102779.25
2023-05-20T08:34:11.947Z,102786.53
2023-05-20T08:35:14.847Z,102788.22
2023-05-20T08:36:19.469Z,102789.06
2023-05-20T08:37:21.401Z,102791.78
2023-05-20T08:38:23.214Z,102791.78
2023-05-20T08:39:26.499Z,102789.22
2023-05-20T08:40:29.097Z,102778.53
2023-05-20T08:41:31.004Z,102794.47
2023-05-20T08:42:33.038Z,102783.66
2023-05-20T08:43:35.616Z,102779.25
2023-05-20T08:44:37.937Z,102784.53
2023-05-20T08:45:39.803Z,102778.25
2023-05-20T08:46:47.877Z,102781.66
2023-05-20T08:47:50.132Z,102776.25
2023-05-20T08:48:52.262Z,102779.13
2023-05-20T08:49:54.152Z,102779.97
2023-05-20T08:50:57.995Z,102771.53
2023-05-20T08:52:01.361Z,102784.38
2023-05-20T08:53:03.189Z,102781.66
2023-05-20T08:54:05.340Z,102775.44
2023-05-20T08:55:09.804Z,102777.25
2023-05-20T08:56:13.115Z,102782.53
2023-05-20T08:57:15.058Z,102774.44
2023-05-20T08:58:19.422Z,102780.69
2023-05-20T08:59:22.165Z,102783.38
2023-05-20T09:00:28.848Z,102772.56
2023-05-20T09:01:30.867Z,102768.88
2023-05-20T09:02:32.744Z,102778.84
2023-05-20T09:03:34.614Z,102775.44
2023-05-20T09:04:36.611Z,102772.56
2023-05-20T09:05:38.552Z,102783.38
2023-05-20T09:06:45.066Z,102772.56
2023-05-20T09:07:47.323Z,102776.16
2023-05-20T09:08:51.218Z,102764.47
2023-05-20T09:09:53.049Z,102770.59
2023-05-20T09:10:54.988Z,102769.75
2023-05-20T09:11:56.865Z,102756.06
2023-05-20T09:13:04.250Z,102770.75
2023-05-20T09:14:06.110Z,102772.44
2023-05-20T09:15:08.872Z,102774.16
2023-05-20T09:16:11.507Z,102767.88
2023-05-20T09:17:13.785Z,102773.16
2023-05-20T09:18:16.003Z,102769.59
2023-05-20T09:19:18.058Z,102758.94
2023-05-20T09:20:22.233Z,102749.50
2023-05-20T09:21:28.501Z,102756.22
2023-05-20T09:22:30.348Z,102760.47
2023-05-20T09:23:32.253Z,102756.94
2023-05-20T09:24:34.065Z,102760.47
2023-05-20T09:25:37.524Z,102757.78
2023-05-20T09:26:40.127Z,102760.47
2023-05-20T09:27:42.273Z,102769.47
2023-05-20T09:28:44.207Z,102766.88
2023-05-20T09:29:51.750Z,102765.19
2023-05-20T09:31:01.026Z,102770.31
2023-05-20T09:32:03.993Z,102760.19
2023-05-20T09:33:07.968Z,102762.06
2023-05-20T09:34:10.152Z,102768.31
2023-05-20T09:35:16.385Z,102764.91
2023-05-20T09:36:21.487Z,102758.66
2023-05-20T09:37:25.964Z,102762.06
2023-05-20T09:38:28.057Z,102758.38
2023-05-20T09:39:34.115Z,102759.50
2023-05-20T09:40:40.423Z,102757.50
2023-05-20T09:41:52.479Z,102752.09
2023-05-20T09:42:57.373Z,102755.50
2023-05-20T09:44:00.170Z,102760.06
2023-05-20T09:45:04.348Z,102757.50
2023-05-20T09:46:08.337Z,102763.78
2023-05-20T09:47:10.372Z,102758.22
2023-05-20T09:48:13.282Z,102761.91
2023-05-20T09:49:16.484Z,102752.09
2023-05-20T09:50:21.664Z,102763.91
2023-05-20T09:51:24.240Z,102760.19
2023-05-20T09:52:27.108Z,102755.78
2023-05-20T09:53:29.089Z,102747.25
2023-05-20T09:54:32.287Z,102761.06
2023-05-20T09:55:35.084Z,102762.06
2023-05-20T09:56:38.028Z,102762.06
2023-05-20T09:57:39.884Z,102763.78
2023-05-20T09:58:44.708Z,102767.47
2023-05-20T09:59:47.864Z,102764.91
2023-05-20T10:00:49.993Z,102750.66
2023-05-20T10:01:51.962Z,102763.63
2023-05-20T10:02:54.314Z,102755.50
2023-05-20T10:03:57.247Z,102767.31
2023-05-20T10:05:04.137Z,102765.47
2023-05-20T10:06:43.648Z,102765.78
2023-05-20T10:08:23.714Z,102773.19
2023-05-20T10:09:55.243Z,102776.91
2023-05-20T10:11:46.453Z,102775.91
2023-05-20T10:13:09.305Z,102777.63
2023-05-20T10:14:26.679Z,102771.63
2023-05-20T10:15:46.989Z,102762.53
2023-05-20T10:17:00.797Z,102772.06
2023-05-20T10:18:22.706Z,102765.78
2023-05-20T10:19:32.457Z,102764.94
2023-05-20T10:20:48.022Z,102762.38
2023-05-20T10:22:10.153Z,102771.19
2023-05-20T10:23:22.145Z,102769.34
2023-05-20T10:24:34.296Z,102766.94
2023-05-20T10:25:36.463Z,102771.34
2023-05-20T10:26:41.440Z,102772.63
2023-05-20T10:27:48.114Z,102766.50
2023-05-20T10:28:49.994Z,102753.81
2023-05-20T10:29:55.797Z,102766.50
2023-05-20T10:30:59.226Z,102768.22
2023-05-20T10:32:02.776Z,102775.34
2023-05-20T10:33:07.094Z,102770.91
2023-05-20T10:34:15.273Z,102765.78
2023-05-20T10:35:22.848Z,102768.94
2023-05-20T10:36:28.111Z,102767.06
2023-05-20T10:37:40.144Z,102764.34
2023-05-20T10:38:52.317Z,102764.06
2023-05-20T10:40:08.506Z,102765.66
2023-05-20T10:41:14.070Z,102764.66
2023-05-20T10:42:16.033Z,102765.50
2023-05-20T10:43:31.109Z,102767.50
2023-05-20T10:44:46.466Z,102762.78
2023-05-20T10:45:58.588Z,102762.66
2023-05-20T10:47:21.025Z,102752.97
2023-05-20T10:48:26.786Z,102759.69
2023-05-20T10:49:34.983Z,102755.56
2023-05-20T10:50:38.798Z,102747.00
2023-05-20T10:51:42.062Z,102754.13
2023-05-20T10:52:44.011Z,102754.13
2023-05-20T10:53:47.025Z,102749.72
2023-05-20T10:54:59.572Z,102746.00
2023-05-20T10:56:01.550Z,102752.97
2023-05-20T10:57:09.426Z,102745.16
2023-05-20T10:58:11.681Z,102743.16
2023-05-20T10:59:13.799Z,102740.44
2023-05-20T11:00:16.369Z,102742.44
2023-05-20T11:01:19.357Z,102730.19
2023-05-20T11:02:28.869Z,102733.50
2023-05-20T11:03:32.017Z,102734.19
2023-05-20T11:04:34.747Z,102736.03
2023-05-20T11:05:39.084Z,102732.50
2023-05-20T11:06:56.095Z,102734.19
2023-05-20T11:08:13.657Z,102732.22
2023-05-20T11:09:26.404Z,102734.34
2023-05-20T11:10:28.244Z,102735.63
2023-05-20T11:11:30.811Z,102732.22
2023-05-20T11:12:33.195Z,102728.78
2023-05-20T11:13:35.556Z,102737.91
2023-05-20T11:14:37.542Z,102738.75
2023-05-20T11:15:39.492Z,102738.91
2023-05-20T11:16:42.541Z,102742.44
2023-05-20T11:17:57.777Z,102732.34
2023-05-20T11:18:59.617Z,102739.31
2023-05-20T11:20:01.578Z,102718.13
2023-05-20T11:21:03.595Z,102740.44
2023-05-20T11:22:08.385Z,102733.50
2023-05-20T11:23:14.059Z,102735.19
2023-05-20T11:24:27.350Z,102735.03
2023-05-20T11:25:29.697Z,102732.91
2023-05-20T11:26:32.052Z,102733.03
2023-05-20T11:27:34.282Z,102731.34
2023-05-20T11:28:36.737Z,102730.50
2023-05-20T11:29:40.601Z,102731.50
2023-05-20T11:30:46.065Z,102729.78
2023-05-20T11:31:53.437Z,102726.09
2023-05-20T11:33:01.655Z,102721.38
2023-05-20T11:34:04.408Z,102731.22
2023-05-20T11:35:07.464Z,102723.22
2023-05-20T11:36:26.350Z,102722.38
2023-05-20T11:37:29.405Z,102710.56
2023-05-20T11:38:31.859Z,102723.81
2023-05-20T11:39:34.085Z,102716.81
2023-05-20T11:40:49.737Z,102714.13
2023-05-20T11:41:52.684Z,102711.13
2023-05-20T11:42:59.600Z,102713.13
2023-05-20T11:44:01.645Z,102716.53
2023-05-20T11:45:03.703Z,102709.56
2023-05-20T11:46:05.870Z,102709.56
2023-05-20T11:47:08.062Z,102710.56
2023-05-20T11:48:11.452Z,102709.00
2023-05-20T11:49:14.370Z,102716.81
2023-05-20T11:50:20.593Z,102715.97
2023-05-20T11:51:28.261Z,102708.69
2023-05-20T11:52:30.307Z,102709.41
2023-05-20T11:53:32.195Z,102709.41
2023-05-20T11:54:36.125Z,102708.16
2023-05-20T11:55:49.657Z,102708.56
2023-05-20T11:56:51.697Z,102706.59
2023-05-20T11:57:54.589Z,102704.88
2023-05-20T11:58:58.904Z,102713.00
2023-05-20T12:00:00.904Z,102703.47
2023-05-20T12:01:13.983Z,102708.56
2023-05-20T12:02:23.348Z,102702.19
2023-05-20T12:03:26.124Z,102704.00
2023-05-20T12:04:28.155Z,102706.59
2023-05-20T12:05:30.121Z,102704.88
2023-05-20T12:06:32.178Z,102715.69
2023-05-20T12:07:33.980Z,102716.53